sensor_id;sensor_type;location;lat;lon;timestamp;temperature;humidity
24011;DHT22;12217;50.792;4.372;2024-02-23T00:01:53;6.20;99.90
24011;DHT22;12217;50.792;4.372;2024-02-23T00:04:19;6.20;99.90
24011;DHT22;12217;50.792;4.372;2024-02-23T00:06:45;6.10;99.90
24011;DHT22;12217;50.792;4.372;2024-02-23T00:09:10;6.20;99.90
24011;DHT22;12217;50.792;4.372;2024-02-23T00:11:40;6.20;99.90
24011;DHT22;12217;50.792;4.372;2024-02-23T00:14:10;6.10;99.90
24011;DHT22;12217;50.792;4.372;2024-02-23T00:16:42;6.00;99.90
24011;DHT22;12217;50.792;4.372;2024-02-23T00:19:08;6.00;99.90
24011;DHT22;12217;50.792;4.372;2024-02-23T00:21:34;5.90;99.90
24011;DHT22;12217;50.792;4.372;2024-02-23T00:23:59;5.90;99.90
24011;DHT22;12217;50.792;4.372;2024-02-23T00:26:25;5.90;99.90
24011;DHT22;12217;50.792;4.372;2024-02-23T00:28:51;5.80;99.90
24011;DHT22;12217;50.792;4.372;2024-02-23T00:31:16;5.80;99.90
24011;DHT22;12217;50.792;4.372;2024-02-23T00:33:42;5.70;99.90
24011;DHT22;12217;50.792;4.372;2024-02-23T00:36:07;5.80;99.90
24011;DHT22;12217;50.792;4.372;2024-02-23T00:38:33;5.70;99.90
24011;DHT22;12217;50.792;4.372;2024-02-23T00:40:59;5.50;99.90
24011;DHT22;12217;50.792;4.372;2024-02-23T00:43:24;5.60;99.90
24011;DHT22;12217;50.792;4.372;2024-02-23T00:45:50;5.70;99.90
24011;DHT22;12217;50.792;4.372;2024-02-23T00:48:15;5.70;99.90
24011;DHT22;12217;50.792;4.372;2024-02-23T00:50:41;5.70;99.90
24011;DHT22;12217;50.792;4.372;2024-02-23T00:53:06;5.70;99.90
24011;DHT22;12217;50.792;4.372;2024-02-23T00:55:32;5.80;99.90
24011;DHT22;12217;50.792;4.372;2024-02-23T00:57:57;5.70;99.90
24011;DHT22;12217;50.792;4.372;2024-02-23T01:00:27;5.60;99.90
24011;DHT22;12217;50.792;4.372;2024-02-23T01:02:53;5.50;99.90
24011;DHT22;12217;50.792;4.372;2024-02-23T01:05:18;5.50;99.90
24011;DHT22;12217;50.792;4.372;2024-02-23T01:07:44;5.50;99.90
24011;DHT22;12217;50.792;4.372;2024-02-23T01:10:09;5.60;99.90
24011;DHT22;12217;50.792;4.372;2024-02-23T01:12:35;5.60;99.90
24011;DHT22;12217;50.792;4.372;2024-02-23T01:15:02;5.60;99.90
24011;DHT22;12217;50.792;4.372;2024-02-23T01:17:28;5.60;99.90
24011;DHT22;12217;50.792;4.372;2024-02-23T01:19:54;5.70;99.90
24011;DHT22;12217;50.792;4.372;2024-02-23T01:22:19;5.60;99.90
24011;DHT22;12217;50.792;4.372;2024-02-23T01:24:45;5.60;99.90
24011;DHT22;12217;50.792;4.372;2024-02-23T01:27:11;5.50;99.90
24011;DHT22;12217;50.792;4.372;2024-02-23T01:29:36;5.50;99.90
24011;DHT22;12217;50.792;4.372;2024-02-23T01:32:02;5.50;99.90
24011;DHT22;12217;50.792;4.372;2024-02-23T01:34:28;5.70;99.90
24011;DHT22;12217;50.792;4.372;2024-02-23T01:36:53;5.60;99.90
24011;DHT22;12217;50.792;4.372;2024-02-23T01:39:19;5.50;99.90
24011;DHT22;12217;50.792;4.372;2024-02-23T01:41:45;5.60;99.90
24011;DHT22;12217;50.792;4.372;2024-02-23T01:44:11;5.50;99.90
24011;DHT22;12217;50.792;4.372;2024-02-23T01:46:36;5.50;99.90
24011;DHT22;12217;50.792;4.372;2024-02-23T01:49:02;5.40;99.90
24011;DHT22;12217;50.792;4.372;2024-02-23T01:51:29;5.50;99.90
24011;DHT22;12217;50.792;4.372;2024-02-23T01:53:55;5.60;99.90
24011;DHT22;12217;50.792;4.372;2024-02-23T01:56:21;5.60;99.90
24011;DHT22;12217;50.792;4.372;2024-02-23T01:58:46;5.60;99.90
24011;DHT22;12217;50.792;4.372;2024-02-23T02:01:12;5.60;99.90
24011;DHT22;12217;50.792;4.372;2024-02-23T02:03:38;5.60;99.90
24011;DHT22;12217;50.792;4.372;2024-02-23T02:06:05;5.60;99.90
24011;DHT22;12217;50.792;4.372;2024-02-23T02:08:33;5.60;99.90
24011;DHT22;12217;50.792;4.372;2024-02-23T02:10:58;5.60;99.90
24011;DHT22;12217;50.792;4.372;2024-02-23T02:13:24;5.70;99.90
24011;DHT22;12217;50.792;4.372;2024-02-23T02:15:50;5.80;99.90
24011;DHT22;12217;50.792;4.372;2024-02-23T02:18:15;5.80;99.90
24011;DHT22;12217;50.792;4.372;2024-02-23T02:20:50;5.80;99.90
24011;DHT22;12217;50.792;4.372;2024-02-23T02:23:16;6.00;99.90
24011;DHT22;12217;50.792;4.372;2024-02-23T02:25:42;5.90;99.90
24011;DHT22;12217;50.792;4.372;2024-02-23T02:28:07;5.90;99.90
24011;DHT22;12217;50.792;4.372;2024-02-23T02:30:33;5.80;99.90
24011;DHT22;12217;50.792;4.372;2024-02-23T02:32:58;5.90;99.90
24011;DHT22;12217;50.792;4.372;2024-02-23T02:35:24;5.80;99.90
24011;DHT22;12217;50.792;4.372;2024-02-23T02:37:49;5.70;99.90
24011;DHT22;12217;50.792;4.372;2024-02-23T02:40:16;5.60;99.90
24011;DHT22;12217;50.792;4.372;2024-02-23T02:42:41;5.70;99.90
24011;DHT22;12217;50.792;4.372;2024-02-23T02:45:07;5.70;99.90
24011;DHT22;12217;50.792;4.372;2024-02-23T02:47:33;5.70;99.90
24011;DHT22;12217;50.792;4.372;2024-02-23T02:49:58;5.70;99.90
24011;DHT22;12217;50.792;4.372;2024-02-23T02:52:24;5.80;99.90
24011;DHT22;12217;50.792;4.372;2024-02-23T02:54:50;5.80;99.90
24011;DHT22;12217;50.792;4.372;2024-02-23T02:57:16;5.90;99.90
24011;DHT22;12217;50.792;4.372;2024-02-23T02:59:41;5.90;99.90
24011;DHT22;12217;50.792;4.372;2024-02-23T03:02:07;5.90;99.90
24011;DHT22;12217;50.792;4.372;2024-02-23T03:04:33;6.00;99.90
24011;DHT22;12217;50.792;4.372;2024-02-23T03:06:58;6.10;99.90
24011;DHT22;12217;50.792;4.372;2024-02-23T03:09:24;6.00;99.90
24011;DHT22;12217;50.792;4.372;2024-02-23T03:11:49;5.90;99.90
24011;DHT22;12217;50.792;4.372;2024-02-23T03:14:15;5.90;99.90
24011;DHT22;12217;50.792;4.372;2024-02-23T03:16:43;5.90;99.90
24011;DHT22;12217;50.792;4.372;2024-02-23T03:19:09;6.00;99.90
24011;DHT22;12217;50.792;4.372;2024-02-23T03:21:34;5.80;99.90
24011;DHT22;12217;50.792;4.372;2024-02-23T03:24:00;5.80;99.90
24011;DHT22;12217;50.792;4.372;2024-02-23T03:26:25;5.90;99.90
24011;DHT22;12217;50.792;4.372;2024-02-23T03:28:51;5.90;99.90
24011;DHT22;12217;50.792;4.372;2024-02-23T03:31:16;6.00;99.90
24011;DHT22;12217;50.792;4.372;2024-02-23T03:33:42;5.90;99.90
24011;DHT22;12217;50.792;4.372;2024-02-23T03:36:08;5.90;99.90
24011;DHT22;12217;50.792;4.372;2024-02-23T03:38:33;5.80;99.90
24011;DHT22;12217;50.792;4.372;2024-02-23T03:40:59;5.80;99.90
24011;DHT22;12217;50.792;4.372;2024-02-23T03:43:26;5.90;99.90
24011;DHT22;12217;50.792;4.372;2024-02-23T03:45:52;5.90;99.90
24011;DHT22;12217;50.792;4.372;2024-02-23T03:48:18;6.00;99.90
24011;DHT22;12217;50.792;4.372;2024-02-23T03:50:43;5.80;99.90
24011;DHT22;12217;50.792;4.372;2024-02-23T03:53:09;5.80;99.90
24011;DHT22;12217;50.792;4.372;2024-02-23T03:55:34;5.80;99.90
24011;DHT22;12217;50.792;4.372;2024-02-23T03:58:00;5.90;99.90
24011;DHT22;12217;50.792;4.372;2024-02-23T04:00:25;5.90;99.90
24011;DHT22;12217;50.792;4.372;2024-02-23T04:02:51;6.00;99.90
24011;DHT22;12217;50.792;4.372;2024-02-23T04:05:17;6.00;99.90
24011;DHT22;12217;50.792;4.372;2024-02-23T04:07:44;6.00;99.90
24011;DHT22;12217;50.792;4.372;2024-02-23T04:10:09;5.90;99.90
24011;DHT22;12217;50.792;4.372;2024-02-23T04:12:35;5.90;99.90
24011;DHT22;12217;50.792;4.372;2024-02-23T04:15:01;6.00;99.90
24011;DHT22;12217;50.792;4.372;2024-02-23T04:17:26;5.90;99.90
24011;DHT22;12217;50.792;4.372;2024-02-23T04:19:52;6.00;99.90
24011;DHT22;12217;50.792;4.372;2024-02-23T04:22:17;6.10;99.90
24011;DHT22;12217;50.792;4.372;2024-02-23T04:24:43;6.10;99.90
24011;DHT22;12217;50.792;4.372;2024-02-23T04:27:08;6.10;99.90
24011;DHT22;12217;50.792;4.372;2024-02-23T04:29:34;6.00;99.90
24011;DHT22;12217;50.792;4.372;2024-02-23T04:32:00;5.90;99.90
24011;DHT22;12217;50.792;4.372;2024-02-23T04:34:29;6.00;99.90
24011;DHT22;12217;50.792;4.372;2024-02-23T04:36:55;6.10;99.90
24011;DHT22;12217;50.792;4.372;2024-02-23T04:39:21;6.00;99.90
24011;DHT22;12217;50.792;4.372;2024-02-23T04:41:48;6.10;99.90
24011;DHT22;12217;50.792;4.372;2024-02-23T04:44:13;6.00;99.90
24011;DHT22;12217;50.792;4.372;2024-02-23T04:46:39;6.00;99.90
24011;DHT22;12217;50.792;4.372;2024-02-23T04:49:04;6.10;99.90
24011;DHT22;12217;50.792;4.372;2024-02-23T04:51:30;6.20;99.90
24011;DHT22;12217;50.792;4.372;2024-02-23T04:53:55;6.40;99.90
24011;DHT22;12217;50.792;4.372;2024-02-23T04:56:21;6.50;99.90
24011;DHT22;12217;50.792;4.372;2024-02-23T04:58:46;6.30;99.90
24011;DHT22;12217;50.792;4.372;2024-02-23T05:01:12;6.30;99.90
24011;DHT22;12217;50.792;4.372;2024-02-23T05:03:38;6.30;99.90
24011;DHT22;12217;50.792;4.372;2024-02-23T05:06:04;6.30;99.90
24011;DHT22;12217;50.792;4.372;2024-02-23T05:08:30;6.20;99.90
24011;DHT22;12217;50.792;4.372;2024-02-23T05:10:56;6.20;99.90
24011;DHT22;12217;50.792;4.372;2024-02-23T05:13:23;6.20;99.90
24011;DHT22;12217;50.792;4.372;2024-02-23T05:15:48;6.10;99.90
24011;DHT22;12217;50.792;4.372;2024-02-23T05:18:14;6.10;99.90
24011;DHT22;12217;50.792;4.372;2024-02-23T05:20:40;6.10;99.90
24011;DHT22;12217;50.792;4.372;2024-02-23T05:23:05;6.00;99.90
24011;DHT22;12217;50.792;4.372;2024-02-23T05:25:31;6.00;99.90
24011;DHT22;12217;50.792;4.372;2024-02-23T05:27:56;6.10;99.90
24011;DHT22;12217;50.792;4.372;2024-02-23T05:30:22;6.00;99.90
24011;DHT22;12217;50.792;4.372;2024-02-23T05:32:48;5.90;99.90
24011;DHT22;12217;50.792;4.372;2024-02-23T05:35:13;6.00;99.90
24011;DHT22;12217;50.792;4.372;2024-02-23T05:37:40;6.10;99.90
24011;DHT22;12217;50.792;4.372;2024-02-23T05:40:06;6.20;99.90
24011;DHT22;12217;50.792;4.372;2024-02-23T05:42:36;6.20;99.90
24011;DHT22;12217;50.792;4.372;2024-02-23T05:45:02;6.10;99.90
24011;DHT22;12217;50.792;4.372;2024-02-23T05:47:30;6.00;99.90
24011;DHT22;12217;50.792;4.372;2024-02-23T05:49:56;6.10;99.90
24011;DHT22;12217;50.792;4.372;2024-02-23T05:52:21;6.10;99.90
24011;DHT22;12217;50.792;4.372;2024-02-23T05:54:47;6.10;99.90
24011;DHT22;12217;50.792;4.372;2024-02-23T05:57:13;6.20;99.90
24011;DHT22;12217;50.792;4.372;2024-02-23T05:59:38;6.10;99.90
24011;DHT22;12217;50.792;4.372;2024-02-23T06:02:04;6.10;99.90
24011;DHT22;12217;50.792;4.372;2024-02-23T06:04:30;6.10;99.90
24011;DHT22;12217;50.792;4.372;2024-02-23T06:06:55;6.00;99.90
24011;DHT22;12217;50.792;4.372;2024-02-23T06:09:21;5.90;99.90
24011;DHT22;12217;50.792;4.372;2024-02-23T06:11:47;6.00;99.90
24011;DHT22;12217;50.792;4.372;2024-02-23T06:14:12;6.00;99.90
24011;DHT22;12217;50.792;4.372;2024-02-23T06:16:38;5.90;99.90
24011;DHT22;12217;50.792;4.372;2024-02-23T06:19:04;5.90;99.90
24011;DHT22;12217;50.792;4.372;2024-02-23T06:21:29;6.00;99.90
24011;DHT22;12217;50.792;4.372;2024-02-23T06:23:55;6.00;99.90
24011;DHT22;12217;50.792;4.372;2024-02-23T06:26:21;6.00;99.90
24011;DHT22;12217;50.792;4.372;2024-02-23T06:28:47;6.00;99.90
24011;DHT22;12217;50.792;4.372;2024-02-23T06:31:14;6.10;99.90
24011;DHT22;12217;50.792;4.372;2024-02-23T06:33:40;6.20;99.90
24011;DHT22;12217;50.792;4.372;2024-02-23T06:36:06;6.20;99.90
24011;DHT22;12217;50.792;4.372;2024-02-23T06:38:33;6.20;99.90
24011;DHT22;12217;50.792;4.372;2024-02-23T06:40:59;6.20;99.90
24011;DHT22;12217;50.792;4.372;2024-02-23T06:43:24;6.30;99.90
24011;DHT22;12217;50.792;4.372;2024-02-23T06:45:50;6.30;99.90
24011;DHT22;12217;50.792;4.372;2024-02-23T06:48:16;6.30;99.90
24011;DHT22;12217;50.792;4.372;2024-02-23T06:50:42;6.10;99.90
24011;DHT22;12217;50.792;4.372;2024-02-23T06:53:08;6.20;99.90
24011;DHT22;12217;50.792;4.372;2024-02-23T06:55:34;6.10;99.90
24011;DHT22;12217;50.792;4.372;2024-02-23T06:58:00;6.10;99.90
24011;DHT22;12217;50.792;4.372;2024-02-23T07:00:26;6.20;99.90
24011;DHT22;12217;50.792;4.372;2024-02-23T07:02:51;6.20;99.90
24011;DHT22;12217;50.792;4.372;2024-02-23T07:05:17;6.20;99.90
24011;DHT22;12217;50.792;4.372;2024-02-23T07:07:43;6.20;99.90
24011;DHT22;12217;50.792;4.372;2024-02-23T07:10:09;6.30;99.90
24011;DHT22;12217;50.792;4.372;2024-02-23T07:12:36;6.20;99.90
24011;DHT22;12217;50.792;4.372;2024-02-23T07:15:01;6.20;99.90
24011;DHT22;12217;50.792;4.372;2024-02-23T07:17:27;6.40;99.90
24011;DHT22;12217;50.792;4.372;2024-02-23T07:19:53;6.50;99.90
24011;DHT22;12217;50.792;4.372;2024-02-23T07:22:19;6.50;99.90
24011;DHT22;12217;50.792;4.372;2024-02-23T07:24:45;6.60;99.90
24011;DHT22;12217;50.792;4.372;2024-02-23T07:27:11;6.50;99.90
24011;DHT22;12217;50.792;4.372;2024-02-23T07:29:36;6.50;99.90
24011;DHT22;12217;50.792;4.372;2024-02-23T07:32:02;6.50;99.90
24011;DHT22;12217;50.792;4.372;2024-02-23T07:34:29;6.50;99.90
24011;DHT22;12217;50.792;4.372;2024-02-23T07:36:54;6.60;99.90
24011;DHT22;12217;50.792;4.372;2024-02-23T07:39:21;6.70;99.90
24011;DHT22;12217;50.792;4.372;2024-02-23T07:41:47;6.90;99.90
24011;DHT22;12217;50.792;4.372;2024-02-23T07:44:13;6.60;99.90
24011;DHT22;12217;50.792;4.372;2024-02-23T07:46:38;6.50;99.90
24011;DHT22;12217;50.792;4.372;2024-02-23T07:49:05;6.50;99.90
24011;DHT22;12217;50.792;4.372;2024-02-23T07:51:31;6.60;99.90
24011;DHT22;12217;50.792;4.372;2024-02-23T07:53:57;6.70;99.90
24011;DHT22;12217;50.792;4.372;2024-02-23T07:56:23;6.80;99.90
24011;DHT22;12217;50.792;4.372;2024-02-23T07:58:48;6.60;99.90
24011;DHT22;12217;50.792;4.372;2024-02-23T08:01:14;6.50;99.90
24011;DHT22;12217;50.792;4.372;2024-02-23T08:03:40;6.60;99.90
24011;DHT22;12217;50.792;4.372;2024-02-23T08:06:06;6.70;99.90
24011;DHT22;12217;50.792;4.372;2024-02-23T08:08:32;6.60;99.90
24011;DHT22;12217;50.792;4.372;2024-02-23T08:11:01;6.60;99.90
24011;DHT22;12217;50.792;4.372;2024-02-23T08:13:27;6.60;99.90
24011;DHT22;12217;50.792;4.372;2024-02-23T08:15:53;6.40;99.90
24011;DHT22;12217;50.792;4.372;2024-02-23T08:18:18;6.30;99.90
24011;DHT22;12217;50.792;4.372;2024-02-23T08:20:44;6.30;99.90
24011;DHT22;12217;50.792;4.372;2024-02-23T08:23:10;6.30;99.90
24011;DHT22;12217;50.792;4.372;2024-02-23T08:25:36;6.30;99.90
24011;DHT22;12217;50.792;4.372;2024-02-23T08:28:02;6.10;99.90
24011;DHT22;12217;50.792;4.372;2024-02-23T08:30:28;6.00;99.90
24011;DHT22;12217;50.792;4.372;2024-02-23T08:32:53;5.90;99.90
24011;DHT22;12217;50.792;4.372;2024-02-23T08:35:19;5.80;99.90
24011;DHT22;12217;50.792;4.372;2024-02-23T08:37:45;5.70;99.90
24011;DHT22;12217;50.792;4.372;2024-02-23T08:40:11;5.80;99.90
24011;DHT22;12217;50.792;4.372;2024-02-23T08:42:37;6.00;99.90
24011;DHT22;12217;50.792;4.372;2024-02-23T08:45:03;6.10;99.90
24011;DHT22;12217;50.792;4.372;2024-02-23T08:47:29;6.20;99.90
24011;DHT22;12217;50.792;4.372;2024-02-23T08:49:58;6.20;99.90
24011;DHT22;12217;50.792;4.372;2024-02-23T08:52:24;6.20;99.90
24011;DHT22;12217;50.792;4.372;2024-02-23T08:54:50;6.10;99.90
24011;DHT22;12217;50.792;4.372;2024-02-23T08:57:16;6.20;99.90
24011;DHT22;12217;50.792;4.372;2024-02-23T08:59:45;6.20;99.90
24011;DHT22;12217;50.792;4.372;2024-02-23T09:02:10;6.20;99.90
24011;DHT22;12217;50.792;4.372;2024-02-23T09:04:36;6.20;99.90
24011;DHT22;12217;50.792;4.372;2024-02-23T09:07:02;6.40;99.90
24011;DHT22;12217;50.792;4.372;2024-02-23T09:09:27;6.40;99.90
24011;DHT22;12217;50.792;4.372;2024-02-23T09:11:53;6.30;99.90
24011;DHT22;12217;50.792;4.372;2024-02-23T09:14:19;6.30;99.90
24011;DHT22;12217;50.792;4.372;2024-02-23T09:16:44;6.20;99.90
24011;DHT22;12217;50.792;4.372;2024-02-23T09:19:11;6.20;99.90
24011;DHT22;12217;50.792;4.372;2024-02-23T09:21:37;6.20;99.90
24011;DHT22;12217;50.792;4.372;2024-02-23T09:24:04;6.30;99.90
24011;DHT22;12217;50.792;4.372;2024-02-23T09:26:29;6.40;99.90
24011;DHT22;12217;50.792;4.372;2024-02-23T09:28:55;6.50;99.90
24011;DHT22;12217;50.792;4.372;2024-02-23T09:31:21;6.50;99.90
24011;DHT22;12217;50.792;4.372;2024-02-23T09:33:46;6.50;99.90
24011;DHT22;12217;50.792;4.372;2024-02-23T09:36:14;6.60;99.90
24011;DHT22;12217;50.792;4.372;2024-02-23T09:38:39;6.80;99.90
24011;DHT22;12217;50.792;4.372;2024-02-23T09:41:11;6.80;99.90
24011;DHT22;12217;50.792;4.372;2024-02-23T09:43:42;6.80;99.90
24011;DHT22;12217;50.792;4.372;2024-02-23T09:46:08;7.00;99.90
24011;DHT22;12217;50.792;4.372;2024-02-23T09:48:34;7.00;99.90
24011;DHT22;12217;50.792;4.372;2024-02-23T09:51:01;7.10;99.90
24011;DHT22;12217;50.792;4.372;2024-02-23T09:53:26;7.00;99.90
24011;DHT22;12217;50.792;4.372;2024-02-23T09:55:53;7.10;99.90
24011;DHT22;12217;50.792;4.372;2024-02-23T09:58:19;7.00;99.90
24011;DHT22;12217;50.792;4.372;2024-02-23T10:00:46;7.00;99.90
24011;DHT22;12217;50.792;4.372;2024-02-23T10:03:12;6.90;99.90
24011;DHT22;12217;50.792;4.372;2024-02-23T10:05:37;6.80;99.90
24011;DHT22;12217;50.792;4.372;2024-02-23T10:08:04;6.80;99.90
24011;DHT22;12217;50.792;4.372;2024-02-23T10:10:32;6.90;99.90
24011;DHT22;12217;50.792;4.372;2024-02-23T10:12:58;6.90;99.90
24011;DHT22;12217;50.792;4.372;2024-02-23T10:15:24;6.80;99.90
24011;DHT22;12217;50.792;4.372;2024-02-23T10:17:50;7.00;99.90
24011;DHT22;12217;50.792;4.372;2024-02-23T10:20:16;7.20;99.90
24011;DHT22;12217;50.792;4.372;2024-02-23T10:22:42;7.00;99.90
24011;DHT22;12217;50.792;4.372;2024-02-23T10:25:09;7.10;99.90
24011;DHT22;12217;50.792;4.372;2024-02-23T10:27:35;7.30;99.90
24011;DHT22;12217;50.792;4.372;2024-02-23T10:30:00;7.40;99.90
24011;DHT22;12217;50.792;4.372;2024-02-23T10:32:29;7.40;99.90
24011;DHT22;12217;50.792;4.372;2024-02-23T10:35:00;7.30;99.90
24011;DHT22;12217;50.792;4.372;2024-02-23T10:37:26;7.20;99.90
24011;DHT22;12217;50.792;4.372;2024-02-23T10:39:57;7.30;99.90
24011;DHT22;12217;50.792;4.372;2024-02-23T10:42:24;7.50;99.90
24011;DHT22;12217;50.792;4.372;2024-02-23T10:44:55;7.40;99.90
24011;DHT22;12217;50.792;4.372;2024-02-23T10:47:22;7.50;99.90
24011;DHT22;12217;50.792;4.372;2024-02-23T10:49:48;7.50;99.90
24011;DHT22;12217;50.792;4.372;2024-02-23T10:52:15;7.60;99.90
24011;DHT22;12217;50.792;4.372;2024-02-23T10:54:46;7.70;99.90
24011;DHT22;12217;50.792;4.372;2024-02-23T10:57:13;7.70;99.90
24011;DHT22;12217;50.792;4.372;2024-02-23T10:59:39;7.60;99.90
24011;DHT22;12217;50.792;4.372;2024-02-23T11:02:05;7.70;99.90
24011;DHT22;12217;50.792;4.372;2024-02-23T11:04:32;7.80;99.90
24011;DHT22;12217;50.792;4.372;2024-02-23T11:06:58;7.90;99.90
24011;DHT22;12217;50.792;4.372;2024-02-23T11:09:31;7.90;99.90
24011;DHT22;12217;50.792;4.372;2024-02-23T11:11:58;7.90;99.90
24011;DHT22;12217;50.792;4.372;2024-02-23T11:16:57;7.70;99.90
24011;DHT22;12217;50.792;4.372;2024-02-23T11:19:35;7.60;99.90
24011;DHT22;12217;50.792;4.372;2024-02-23T11:22:01;7.80;99.90
24011;DHT22;12217;50.792;4.372;2024-02-23T11:24:31;7.80;99.90
24011;DHT22;12217;50.792;4.372;2024-02-23T11:27:01;7.80;99.90
24011;DHT22;12217;50.792;4.372;2024-02-23T11:29:34;7.70;99.90
24011;DHT22;12217;50.792;4.372;2024-02-23T11:32:01;7.70;99.90
24011;DHT22;12217;50.792;4.372;2024-02-23T11:34:30;7.70;99.90
24011;DHT22;12217;50.792;4.372;2024-02-23T11:36:55;7.70;99.90
24011;DHT22;12217;50.792;4.372;2024-02-23T11:39:22;7.50;99.90
24011;DHT22;12217;50.792;4.372;2024-02-23T11:41:49;7.70;99.90
24011;DHT22;12217;50.792;4.372;2024-02-23T11:44:15;7.70;99.90
24011;DHT22;12217;50.792;4.372;2024-02-23T11:46:43;7.70;99.90
24011;DHT22;12217;50.792;4.372;2024-02-23T11:49:09;7.80;99.90
24011;DHT22;12217;50.792;4.372;2024-02-23T11:51:35;7.70;99.90
24011;DHT22;12217;50.792;4.372;2024-02-23T11:54:01;7.80;99.90
24011;DHT22;12217;50.792;4.372;2024-02-23T11:56:33;7.90;99.90
24011;DHT22;12217;50.792;4.372;2024-02-23T11:59:15;7.70;99.90
24011;DHT22;12217;50.792;4.372;2024-02-23T12:01:49;7.70;99.90
24011;DHT22;12217;50.792;4.372;2024-02-23T12:04:14;7.80;99.90
24011;DHT22;12217;50.792;4.372;2024-02-23T12:06:42;8.00;99.90
24011;DHT22;12217;50.792;4.372;2024-02-23T12:09:07;8.00;99.90
24011;DHT22;12217;50.792;4.372;2024-02-23T12:11:33;8.10;99.90
24011;DHT22;12217;50.792;4.372;2024-02-23T12:14:00;8.10;99.90
24011;DHT22;12217;50.792;4.372;2024-02-23T12:16:27;8.40;99.90
24011;DHT22;12217;50.792;4.372;2024-02-23T12:18:54;8.70;99.90
24011;DHT22;12217;50.792;4.372;2024-02-23T12:21:21;9.10;99.90
24011;DHT22;12217;50.792;4.372;2024-02-23T12:23:48;9.00;99.90
24011;DHT22;12217;50.792;4.372;2024-02-23T12:26:16;8.80;99.90
24011;DHT22;12217;50.792;4.372;2024-02-23T12:28:42;9.10;99.90
24011;DHT22;12217;50.792;4.372;2024-02-23T12:31:08;8.90;99.90
24011;DHT22;12217;50.792;4.372;2024-02-23T12:33:36;9.40;99.90
24011;DHT22;12217;50.792;4.372;2024-02-23T12:36:03;9.40;99.90
24011;DHT22;12217;50.792;4.372;2024-02-23T12:38:30;9.40;99.90
24011;DHT22;12217;50.792;4.372;2024-02-23T12:40:56;9.30;99.90
24011;DHT22;12217;50.792;4.372;2024-02-23T12:43:22;9.00;99.90
24011;DHT22;12217;50.792;4.372;2024-02-23T12:45:53;9.00;99.90
24011;DHT22;12217;50.792;4.372;2024-02-23T12:48:19;9.10;99.90
24011;DHT22;12217;50.792;4.372;2024-02-23T12:50:49;8.80;99.90
24011;DHT22;12217;50.792;4.372;2024-02-23T12:53:34;8.80;99.90
24011;DHT22;12217;50.792;4.372;2024-02-23T12:56:02;9.60;99.90
24011;DHT22;12217;50.792;4.372;2024-02-23T12:58:28;11.00;99.90
24011;DHT22;12217;50.792;4.372;2024-02-23T13:00:54;10.40;99.90
24011;DHT22;12217;50.792;4.372;2024-02-23T13:03:19;9.90;99.90
24011;DHT22;12217;50.792;4.372;2024-02-23T13:05:45;9.50;99.90
24011;DHT22;12217;50.792;4.372;2024-02-23T13:08:11;9.00;99.90
24011;DHT22;12217;50.792;4.372;2024-02-23T13:10:37;8.80;99.90
24011;DHT22;12217;50.792;4.372;2024-02-23T13:13:03;8.70;99.90
24011;DHT22;12217;50.792;4.372;2024-02-23T13:15:28;9.00;99.90
24011;DHT22;12217;50.792;4.372;2024-02-23T13:17:54;9.20;99.90
24011;DHT22;12217;50.792;4.372;2024-02-23T13:20:19;9.50;99.90
24011;DHT22;12217;50.792;4.372;2024-02-23T13:22:45;9.70;99.90
24011;DHT22;12217;50.792;4.372;2024-02-23T13:25:11;9.60;99.90
24011;DHT22;12217;50.792;4.372;2024-02-23T13:27:36;9.30;99.90
24011;DHT22;12217;50.792;4.372;2024-02-23T13:30:03;9.20;99.90
24011;DHT22;12217;50.792;4.372;2024-02-23T13:32:28;9.20;99.90
24011;DHT22;12217;50.792;4.372;2024-02-23T13:34:54;9.10;99.90
24011;DHT22;12217;50.792;4.372;2024-02-23T13:37:20;8.90;99.90
24011;DHT22;12217;50.792;4.372;2024-02-23T13:39:45;8.90;99.90
24011;DHT22;12217;50.792;4.372;2024-02-23T13:42:11;8.90;99.90
24011;DHT22;12217;50.792;4.372;2024-02-23T13:44:36;9.20;99.90
24011;DHT22;12217;50.792;4.372;2024-02-23T13:47:02;9.30;99.90
24011;DHT22;12217;50.792;4.372;2024-02-23T13:49:28;9.80;99.90
24011;DHT22;12217;50.792;4.372;2024-02-23T13:51:54;10.10;99.90
24011;DHT22;12217;50.792;4.372;2024-02-23T13:54:20;11.00;99.90
24011;DHT22;12217;50.792;4.372;2024-02-23T13:56:45;12.80;99.90
24011;DHT22;12217;50.792;4.372;2024-02-23T13:59:12;12.60;99.90
24011;DHT22;12217;50.792;4.372;2024-02-23T14:01:38;11.20;99.90
24011;DHT22;12217;50.792;4.372;2024-02-23T14:04:07;11.00;99.90
24011;DHT22;12217;50.792;4.372;2024-02-23T14:06:33;11.10;99.90
24011;DHT22;12217;50.792;4.372;2024-02-23T14:08:58;11.20;99.90
24011;DHT22;12217;50.792;4.372;2024-02-23T14:11:51;11.80;99.90
24011;DHT22;12217;50.792;4.372;2024-02-23T14:14:17;11.10;99.90
24011;DHT22;12217;50.792;4.372;2024-02-23T14:16:50;10.50;99.90
24011;DHT22;12217;50.792;4.372;2024-02-23T14:19:16;10.30;99.90
24011;DHT22;12217;50.792;4.372;2024-02-23T14:21:42;10.70;99.90
24011;DHT22;12217;50.792;4.372;2024-02-23T14:24:07;10.80;99.90
24011;DHT22;12217;50.792;4.372;2024-02-23T14:26:33;11.80;99.90
24011;DHT22;12217;50.792;4.372;2024-02-23T14:28:59;11.90;99.90
24011;DHT22;12217;50.792;4.372;2024-02-23T14:31:25;11.30;99.90
24011;DHT22;12217;50.792;4.372;2024-02-23T14:33:51;10.50;99.90
24011;DHT22;12217;50.792;4.372;2024-02-23T14:36:18;10.40;99.90
24011;DHT22;12217;50.792;4.372;2024-02-23T14:38:43;10.20;99.90
24011;DHT22;12217;50.792;4.372;2024-02-23T14:41:09;10.40;99.90
24011;DHT22;12217;50.792;4.372;2024-02-23T14:43:35;12.20;99.90
24011;DHT22;12217;50.792;4.372;2024-02-23T14:46:02;13.10;99.90
24011;DHT22;12217;50.792;4.372;2024-02-23T14:48:27;14.00;99.90
24011;DHT22;12217;50.792;4.372;2024-02-23T14:50:53;14.90;99.90
24011;DHT22;12217;50.792;4.372;2024-02-23T14:53:19;15.90;99.90
24011;DHT22;12217;50.792;4.372;2024-02-23T14:55:44;16.70;99.90
24011;DHT22;12217;50.792;4.372;2024-02-23T14:58:10;16.60;99.90
24011;DHT22;12217;50.792;4.372;2024-02-23T15:00:35;16.20;99.90
24011;DHT22;12217;50.792;4.372;2024-02-23T15:03:03;14.80;99.90
24011;DHT22;12217;50.792;4.372;2024-02-23T15:05:28;13.40;99.90
24011;DHT22;12217;50.792;4.372;2024-02-23T15:07:54;12.20;99.90
24011;DHT22;12217;50.792;4.372;2024-02-23T15:10:20;11.70;99.90
24011;DHT22;12217;50.792;4.372;2024-02-23T15:12:46;11.50;99.90
24011;DHT22;12217;50.792;4.372;2024-02-23T15:15:20;11.00;99.90
24011;DHT22;12217;50.792;4.372;2024-02-23T15:17:46;10.70;99.90
24011;DHT22;12217;50.792;4.372;2024-02-23T15:20:14;10.50;99.90
24011;DHT22;12217;50.792;4.372;2024-02-23T15:22:39;10.40;99.90
24011;DHT22;12217;50.792;4.372;2024-02-23T15:25:14;10.20;99.90
24011;DHT22;12217;50.792;4.372;2024-02-23T15:27:43;9.90;99.90
24011;DHT22;12217;50.792;4.372;2024-02-23T15:30:44;9.90;99.90
24011;DHT22;12217;50.792;4.372;2024-02-23T15:33:30;9.90;99.90
24011;DHT22;12217;50.792;4.372;2024-02-23T15:35:55;9.90;99.90
24011;DHT22;12217;50.792;4.372;2024-02-23T15:38:21;10.00;99.90
24011;DHT22;12217;50.792;4.372;2024-02-23T15:40:47;10.00;99.90
24011;DHT22;12217;50.792;4.372;2024-02-23T15:43:15;10.00;99.90